Terminal Aerodrome Forecast
Issued by NWS Topeka, KS

Home | Current Version | Previous Version | Text Only | Print | Product List | Glossary On
Versions: 1 2 3 4 5 6 7 8 9 10 11 12 13 14 15 16 17
248
FTUS43 KTOP 082320
TAFTOP
TAF
KTOP 082320Z 0900/0924 32022G30KT P6SM BKN050
     FM090100 32016G24KT P6SM SCT040=

USA.gov is the U.S. government's official web portal to all federal, state and local government web resources and services.